Woodland Hills, CA

4:43 AM PST on February 19, 2017 (GMT -0800)
Fallbrook Mall Area | | Change Station
Active Advisory: Small Craft Advisory

Elev 832 ft 34.18 °N, 118.62 °W | Updated 39 seconds ago

Overcast
Overcast
48.6 °F
Feels Like 49 °F
N
0.0
Wind Variable Wind from SSW
Gusts 0.0 mph

Today
High -- | Low -- °F
--% Chance of Precip.
Yesterday
High -- | Low -- °F
Precip. -- in
Pressure 29.79 in
Visibility 10.0 miles
Clouds Mostly Cloudy 1000 ft
Overcast 1400 ft
Windchill 49 °F
Dew Point 48 °F
Humidity 96%
Rainfall 0.00 in
Snow Depth Not available.
6:34 AM 5:42 PM
Last Quarter, 43% visible
METAR KVNY 191151Z AUTO 34003KT 10SM BKN010 OVC014 09/09 A2979 RMK AO2 SLP086 70005 T00890089 10106 20083 51017
Pressure 29.79 in
Visibility 10.0 miles
Clouds Mostly Cloudy 1000 ft
Overcast 1400 ft
Windchill 49 °F
Dew Point 48 °F
Humidity 96%
Rainfall 0.00 in
Snow Depth Not available.
6:34 AM 5:42 PM
Last Quarter, 43% visible
METAR KVNY 191151Z AUTO 34003KT 10SM BKN010 OVC014 09/09 A2979 RMK AO2 SLP086 70005 T00890089 10106 20083 51017

Get Your Daily Forecast Email!

Thanks for signing up!

Be on the lookout for a verification email in your inbox.

You'll start receiving the daily forecast at 8 AM.

×

10-Day Weather Forecast

Almanac

Astronomy

Feb. 19, 2017 Rise Set
Actual Time
Civil Twilight
Nautical Twilight
Astronomical Twilight
Moon
Length of Visible Light
Length of Day
Tomorrow will be .
, % of the Moon is Illuminated

Today's Extremes

State Highs State Lows

Community

WunderPhotos

Upload Photos

1,962,540 photos uploaded!

WunderBlog® & News

Nearby

Air Quality

  Air Quality AQ Index Pollutant
Not available.

Snow Depth

Station Depth Elevation

Earthquake Activity

City Distance Mag. Time & Date
Minimum magnitude displayed is 2.5.

Coastal Water Temperatures

Place Temperature

Stations

Nearby Weather Stations

Station Location Temp. Windchill Dew Point Humidity Wind Precip. Elev Updated Type
                   

Watches & Warnings

Small Craft Advisory
Issued: 3:51 AM PST Feb. 19, 2017 – National Weather Service

... Small Craft Advisory remains in effect until 3 PM PST this
afternoon...

See the coastal waters forecast (cwflox) for more details.

Precautionary/preparedness actions...

A Small Craft Advisory means that hazardous sea conditions will
exist for small craft. Inexperienced mariners... especially those
operating smaller vessels should avoid navigating in these
conditions.